createdAt,value
2023-05-22T00:01:02.229Z,11.68
2023-05-22T00:03:50.886Z,11.68
2023-05-22T00:06:42.934Z,11.65
2023-05-22T00:09:31.396Z,11.62
2023-05-22T00:12:19.937Z,11.59
2023-05-22T00:15:08.909Z,11.53
2023-05-22T00:17:57.709Z,11.48
2023-05-22T00:20:46.525Z,11.45
2023-05-22T00:23:35.416Z,11.43
2023-05-22T00:26:24.069Z,11.40
2023-05-22T00:29:12.769Z,11.36
2023-05-22T00:32:01.291Z,11.32
2023-05-22T00:34:50.613Z,11.30
2023-05-22T00:37:39.289Z,11.29
2023-05-22T00:40:27.835Z,11.28
2023-05-22T00:43:17.514Z,11.25
2023-05-22T00:46:07.792Z,11.21
2023-05-22T00:48:56.710Z,11.15
2023-05-22T00:51:45.570Z,11.13
2023-05-22T00:54:34.245Z,11.11
2023-05-22T00:57:24.615Z,11.07
2023-05-22T01:05:18.307Z,11.03
2023-05-22T01:08:08.580Z,11.01
2023-05-22T01:11:04.417Z,10.96
2023-05-22T01:13:55.808Z,10.90
2023-05-22T01:16:48.521Z,10.84
2023-05-22T01:20:07.604Z,10.79
2023-05-22T01:23:44.239Z,10.72
2023-05-22T01:26:54.408Z,10.67
2023-05-22T01:30:05.030Z,10.64
2023-05-22T01:32:57.949Z,10.59
2023-05-22T01:35:51.782Z,10.55
2023-05-22T01:38:42.840Z,10.54
2023-05-22T01:41:32.710Z,10.53
2023-05-22T01:44:21.364Z,10.50
2023-05-22T01:47:10.806Z,10.46
2023-05-22T01:49:59.527Z,10.45
2023-05-22T01:53:15.287Z,10.41
2023-05-22T01:56:12.926Z,10.37
2023-05-22T01:59:12.918Z,10.35
2023-05-22T02:02:06.419Z,10.30
2023-05-22T02:05:03.836Z,10.27
2023-05-22T02:07:56.479Z,10.19
2023-05-22T02:10:46.299Z,10.10
2023-05-22T02:13:35.344Z,10.02
2023-05-22T02:16:24.456Z,9.95
2023-05-22T02:19:15.384Z,9.90
2023-05-22T02:22:04.433Z,9.85
2023-05-22T02:24:53.023Z,9.82
2023-05-22T02:27:42.886Z,9.78
2023-05-22T02:30:31.463Z,9.73
2023-05-22T02:33:20.199Z,9.69
2023-05-22T02:36:12.992Z,9.65
2023-05-22T02:39:01.566Z,9.64
2023-05-22T02:41:50.793Z,9.66
2023-05-22T02:44:39.331Z,9.70
2023-05-22T02:47:28.190Z,9.73
2023-05-22T02:50:17.489Z,9.76
2023-05-22T02:53:07.255Z,9.77
2023-05-22T02:55:58.920Z,9.78
2023-05-22T02:58:48.071Z,9.82
2023-05-22T03:01:38.834Z,9.86
2023-05-22T03:04:27.583Z,9.90
2023-05-22T03:07:17.034Z,9.95
2023-05-22T03:10:06.981Z,10.02
2023-05-22T03:12:55.689Z,10.08
2023-05-22T03:15:44.290Z,10.12
2023-05-22T03:18:36.360Z,10.12
2023-05-22T03:21:24.969Z,10.12
2023-05-22T03:24:13.492Z,10.17
2023-05-22T03:27:02.377Z,10.22
2023-05-22T03:30:04.051Z,10.78
2023-05-22T03:32:55.290Z,11.86
2023-05-22T03:35:44.660Z,13.01
2023-05-22T03:38:33.296Z,14.16
2023-05-22T03:41:22.388Z,15.26
2023-05-22T03:44:11.233Z,16.28
2023-05-22T03:47:00.016Z,17.29
2023-05-22T03:49:48.838Z,18.19
2023-05-22T03:52:37.576Z,18.91
2023-05-22T03:55:26.672Z,19.62
2023-05-22T03:58:15.317Z,20.10
2023-05-22T04:01:05.440Z,20.56
2023-05-22T04:03:54.002Z,21.05
2023-05-22T04:06:45.361Z,21.51
2023-05-22T04:09:35.770Z,21.90
2023-05-22T04:12:24.508Z,21.60
2023-05-22T04:15:13.111Z,21.82
2023-05-22T04:18:02.547Z,22.28
2023-05-22T04:20:51.968Z,22.63
2023-05-22T04:23:43.375Z,21.95
2023-05-22T04:26:32.162Z,21.27
2023-05-22T04:29:22.385Z,20.86
2023-05-22T04:32:11.603Z,20.35
2023-05-22T04:35:00.778Z,19.56
2023-05-22T04:37:50.283Z,18.86
2023-05-22T04:40:40.065Z,18.22
2023-05-22T04:43:32.408Z,17.77
2023-05-22T04:46:21.285Z,17.44
2023-05-22T04:49:10.521Z,17.27
2023-05-22T04:51:59.347Z,17.09
2023-05-22T04:54:48.077Z,16.92
2023-05-22T04:57:36.751Z,16.86
2023-05-22T05:00:28.621Z,16.76
2023-05-22T05:03:17.286Z,16.66
2023-05-22T05:06:06.154Z,16.60
2023-05-22T05:08:55.073Z,16.53
2023-05-22T05:11:43.755Z,16.48
2023-05-22T05:14:32.309Z,16.50
2023-05-22T05:17:22.417Z,16.36
2023-05-22T05:20:14.611Z,16.28
2023-05-22T05:23:03.392Z,16.32
2023-05-22T05:25:51.916Z,16.38
2023-05-22T05:28:41.888Z,16.38
2023-05-22T05:31:30.929Z,16.30
2023-05-22T05:34:36.495Z,16.22
2023-05-22T05:37:26.258Z,16.28
2023-05-22T05:40:17.879Z,16.48
2023-05-22T05:43:11.301Z,16.62
2023-05-22T05:46:00.714Z,16.78
2023-05-22T05:48:49.357Z,17.01
2023-05-22T05:51:38.664Z,17.14
2023-05-22T05:54:27.998Z,17.19
2023-05-22T05:57:20.890Z,17.19
2023-05-22T06:00:12.047Z,17.32
2023-05-22T06:03:03.253Z,17.44
2023-05-22T06:06:26.258Z,17.49
2023-05-22T06:09:41.228Z,17.40
2023-05-22T06:12:37.961Z,17.44
2023-05-22T06:15:26.534Z,17.67
2023-05-22T06:18:15.698Z,17.83
2023-05-22T06:21:04.576Z,18.03
2023-05-22T06:23:53.452Z,18.30
2023-05-22T06:26:42.140Z,18.43
2023-05-22T06:29:31.126Z,18.44
2023-05-22T06:32:20.240Z,18.55
2023-05-22T06:35:10.283Z,18.58
2023-05-22T06:37:59.082Z,18.58
2023-05-22T06:40:48.087Z,18.67
2023-05-22T06:43:42.824Z,18.53
2023-05-22T06:46:34.710Z,18.54
2023-05-22T06:49:25.744Z,18.72
2023-05-22T06:52:16.397Z,18.88
2023-05-22T06:55:07.837Z,19.09
2023-05-22T06:58:05.098Z,19.27
2023-05-22T07:00:55.869Z,19.32
2023-05-22T07:04:01.346Z,19.55
2023-05-22T07:07:09.466Z,19.56
2023-05-22T07:09:58.541Z,19.64
2023-05-22T07:12:47.151Z,19.88
2023-05-22T07:15:36.012Z,20.05
2023-05-22T07:18:25.188Z,20.19
2023-05-22T07:21:13.860Z,20.30
2023-05-22T07:24:08.583Z,20.40
2023-05-22T07:26:59.872Z,20.36
2023-05-22T07:29:48.560Z,20.38
2023-05-22T07:32:37.857Z,20.47
2023-05-22T07:35:26.467Z,20.58
2023-05-22T07:38:15.031Z,20.74
2023-05-22T07:41:09.932Z,20.90
2023-05-22T07:43:59.150Z,21.04
2023-05-22T07:46:52.044Z,21.13
2023-05-22T07:49:43.392Z,21.28
2023-05-22T07:52:33.046Z,21.42
2023-05-22T07:55:23.621Z,21.48
2023-05-22T07:58:13.778Z,21.24
2023-05-22T08:01:05.863Z,21.09
2023-05-22T08:03:56.127Z,21.14
2023-05-22T08:06:45.032Z,21.25
2023-05-22T08:09:34.821Z,21.42
2023-05-22T08:12:23.646Z,21.45
2023-05-22T08:15:12.260Z,21.34
2023-05-22T08:18:02.047Z,21.29
2023-05-22T08:20:54.303Z,21.43
2023-05-22T08:23:43.424Z,21.65
2023-05-22T08:26:33.556Z,21.78
2023-05-22T08:29:22.133Z,21.87
2023-05-22T08:32:10.634Z,22.06
2023-05-22T08:34:59.625Z,22.18
2023-05-22T08:37:48.170Z,22.17
2023-05-22T08:40:39.359Z,22.15
2023-05-22T08:43:28.758Z,22.13
2023-05-22T08:46:20.110Z,22.15
2023-05-22T08:49:09.214Z,22.17
2023-05-22T08:52:11.196Z,22.20
2023-05-22T08:55:00.853Z,22.19
2023-05-22T08:57:50.229Z,22.09
2023-05-22T09:00:39.109Z,22.11
2023-05-22T09:03:32.934Z,22.26
2023-05-22T09:06:21.777Z,22.40
2023-05-22T09:09:10.813Z,22.51
2023-05-22T09:11:59.550Z,22.47
2023-05-22T09:14:48.072Z,22.45
2023-05-22T09:17:42.528Z,22.45
2023-05-22T09:20:35.704Z,22.57
2023-05-22T09:23:25.632Z,22.74
2023-05-22T09:26:14.173Z,22.72
2023-05-22T09:29:03.113Z,22.77
2023-05-22T09:31:51.891Z,22.70
2023-05-22T09:34:40.890Z,22.62
2023-05-22T09:37:35.499Z,22.59
2023-05-22T09:40:24.059Z,22.55
2023-05-22T09:43:17.532Z,22.53
2023-05-22T09:46:06.136Z,22.47
2023-05-22T09:48:54.769Z,22.52
2023-05-22T09:51:47.685Z,22.58
2023-05-22T09:54:44.672Z,22.75
2023-05-22T09:57:40.811Z,22.81
2023-05-22T10:00:29.604Z,22.85
2023-05-22T10:03:23.530Z,22.76
2023-05-22T10:06:14.481Z,22.50
2023-05-22T10:09:05.221Z,22.40
2023-05-22T10:11:57.052Z,22.25
2023-05-22T10:14:46.415Z,22.07
2023-05-22T10:17:36.905Z,21.88
2023-05-22T10:20:26.993Z,21.73
2023-05-22T10:23:18.671Z,21.79
2023-05-22T10:26:07.949Z,21.92
2023-05-22T10:29:17.048Z,22.10
2023-05-22T10:32:13.489Z,22.28
2023-05-22T10:35:14.003Z,22.50
2023-05-22T10:38:16.190Z,22.70
2023-05-22T10:41:05.206Z,22.91
2023-05-22T10:43:56.595Z,22.89
2023-05-22T10:46:50.371Z,23.06
2023-05-22T10:49:44.297Z,23.15
2023-05-22T10:52:32.917Z,23.17
2023-05-22T10:55:22.861Z,23.22
2023-05-22T10:58:14.490Z,23.11
2023-05-22T11:01:19.649Z,23.20
2023-05-22T11:04:16.060Z,23.37
2023-05-22T11:07:08.711Z,23.57
2023-05-22T11:10:00.902Z,23.81
2023-05-22T11:13:03.196Z,23.98
2023-05-22T11:15:54.444Z,23.81
2023-05-22T11:18:45.143Z,23.61
2023-05-22T11:21:44.962Z,23.62
2023-05-22T11:24:34.491Z,23.47
2023-05-22T11:27:23.119Z,23.49
2023-05-22T11:30:12.816Z,23.51
2023-05-22T11:33:02.796Z,23.53
2023-05-22T11:35:53.837Z,23.47
2023-05-22T11:38:43.223Z,23.47
2023-05-22T11:41:35.951Z,23.61
2023-05-22T11:44:27.442Z,23.78
2023-05-22T11:47:16.429Z,23.90
2023-05-22T11:50:08.351Z,24.00
2023-05-22T11:52:59.432Z,24.13
2023-05-22T11:55:49.343Z,24.14
2023-05-22T11:58:37.830Z,23.81
2023-05-22T12:01:29.620Z,23.68
2023-05-22T12:04:18.239Z,23.75
2023-05-22T12:07:07.875Z,23.83
2023-05-22T12:09:57.614Z,23.90
2023-05-22T12:12:48.121Z,23.84
2023-05-22T12:15:36.757Z,23.82
2023-05-22T12:18:25.576Z,23.83
2023-05-22T12:21:14.074Z,23.85
2023-05-22T12:24:04.594Z,23.95
2023-05-22T12:26:56.636Z,24.05
2023-05-22T12:29:45.143Z,24.05
2023-05-22T12:32:33.715Z,24.03
2023-05-22T12:35:22.610Z,24.04
2023-05-22T12:38:11.851Z,24.05
2023-05-22T12:41:00.353Z,24.06
2023-05-22T12:43:49.191Z,24.07
2023-05-22T12:46:38.276Z,24.24
2023-05-22T12:49:26.860Z,24.09
2023-05-22T12:52:15.592Z,24.09
2023-05-22T12:55:04.697Z,23.99
2023-05-22T12:57:53.381Z,24.13
2023-05-22T13:00:42.181Z,24.25
2023-05-22T13:03:31.290Z,24.02
2023-05-22T13:06:20.772Z,23.92
2023-05-22T13:09:09.292Z,23.95
2023-05-22T13:11:57.833Z,24.01
2023-05-22T13:14:46.536Z,23.91
2023-05-22T13:17:35.080Z,23.98
2023-05-22T13:20:23.729Z,24.07
2023-05-22T13:23:12.561Z,24.15
2023-05-22T13:26:02.229Z,24.19
2023-05-22T13:28:51.012Z,24.03
2023-05-22T13:31:39.630Z,23.98
2023-05-22T13:34:29.339Z,23.98
2023-05-22T13:37:18.757Z,24.02
2023-05-22T13:40:08.755Z,23.97
2023-05-22T13:42:57.414Z,23.85
2023-05-22T13:45:45.989Z,23.61
2023-05-22T13:48:34.578Z,23.52
2023-05-22T13:51:23.112Z,23.46
2023-05-22T13:54:11.759Z,23.45
2023-05-22T13:57:02.528Z,23.45
2023-05-22T13:59:51.106Z,23.44
2023-05-22T14:02:39.826Z,23.56
2023-05-22T14:05:28.536Z,23.69
2023-05-22T14:08:17.109Z,23.75
2023-05-22T14:11:05.841Z,23.96
2023-05-22T14:13:54.448Z,24.05
2023-05-22T14:16:43.180Z,24.06
2023-05-22T14:19:31.865Z,24.11
2023-05-22T14:22:20.441Z,24.00
2023-05-22T14:25:09.232Z,23.86
2023-05-22T14:27:57.728Z,23.75
2023-05-22T14:30:46.565Z,23.70
2023-05-22T14:33:35.880Z,23.55
2023-05-22T14:36:24.469Z,23.61
2023-05-22T14:39:13.075Z,23.82
2023-05-22T14:42:01.683Z,23.95
2023-05-22T14:44:50.383Z,23.96
2023-05-22T14:47:40.840Z,23.98
2023-05-22T14:50:29.499Z,23.91
2023-05-22T14:53:18.071Z,23.87
2023-05-22T14:56:06.810Z,23.90
2023-05-22T14:58:55.591Z,23.89
2023-05-22T15:01:44.571Z,23.86
2023-05-22T15:04:33.188Z,23.73
2023-05-22T15:07:24.324Z,23.56
2023-05-22T15:10:15.448Z,23.62
2023-05-22T15:13:04.085Z,23.54
2023-05-22T15:15:52.757Z,23.31
2023-05-22T15:18:41.437Z,23.16
2023-05-22T15:21:30.158Z,23.07
2023-05-22T15:24:18.656Z,22.98
2023-05-22T15:27:07.729Z,22.89
2023-05-22T15:29:56.368Z,22.87
2023-05-22T15:32:45.155Z,22.89
2023-05-22T15:35:33.733Z,22.77
2023-05-22T15:38:22.426Z,22.66
2023-05-22T15:41:11.122Z,22.56
2023-05-22T15:43:59.687Z,22.52
2023-05-22T15:46:48.182Z,22.51
2023-05-22T15:49:36.854Z,22.43
2023-05-22T15:52:25.524Z,22.38
2023-05-22T15:55:14.088Z,22.33
2023-05-22T15:58:02.921Z,22.23
2023-05-22T16:00:51.515Z,22.07
2023-05-22T16:03:40.407Z,21.96
2023-05-22T16:06:29.066Z,21.89
2023-05-22T16:09:19.473Z,21.77
2023-05-22T16:12:08.150Z,21.65
2023-05-22T16:15:00.254Z,21.64
2023-05-22T16:17:49.273Z,21.62
2023-05-22T16:20:38.679Z,21.55
2023-05-22T16:23:27.525Z,21.49
2023-05-22T16:26:16.121Z,21.40
2023-05-22T16:29:07.450Z,21.34
2023-05-22T16:31:56.827Z,21.28
2023-05-22T16:34:45.767Z,21.22
2023-05-22T16:37:34.329Z,21.18
2023-05-22T16:40:22.858Z,21.13
2023-05-22T16:43:12.628Z,21.07
2023-05-22T16:46:01.146Z,21.01
2023-05-22T16:48:50.486Z,20.94
2023-05-22T16:51:39.020Z,20.92
2023-05-22T16:54:27.551Z,20.87
2023-05-22T16:57:16.458Z,20.81
2023-05-22T17:00:06.809Z,20.77
2023-05-22T17:02:55.955Z,20.71
2023-05-22T17:05:44.856Z,20.65
2023-05-22T17:08:33.378Z,20.60
2023-05-22T17:11:23.974Z,20.51
2023-05-22T17:14:13.045Z,20.44
2023-05-22T17:17:01.541Z,20.39
2023-05-22T17:19:50.125Z,20.32
2023-05-22T17:22:39.111Z,20.24
2023-05-22T17:25:27.699Z,20.15
2023-05-22T17:28:16.643Z,20.08
2023-05-22T17:31:05.264Z,19.98
2023-05-22T17:33:53.997Z,19.90
2023-05-22T17:36:44.773Z,19.82
2023-05-22T17:39:34.461Z,19.75
2023-05-22T17:42:02.888Z,19.67
2023-05-22T17:44:31.479Z,19.60
2023-05-22T17:47:18.513Z,19.48
2023-05-22T17:50:07.686Z,19.38
2023-05-22T17:52:56.317Z,19.29
2023-05-22T17:55:46.689Z,19.21
2023-05-22T17:58:35.430Z,19.11
2023-05-22T18:01:24.644Z,19.00
2023-05-22T18:04:13.278Z,18.91
2023-05-22T18:07:01.924Z,18.82
2023-05-22T18:09:50.524Z,18.75
2023-05-22T18:12:39.432Z,18.66
2023-05-22T18:15:28.054Z,18.61
2023-05-22T18:18:17.481Z,18.53
2023-05-22T18:21:06.266Z,18.45
2023-05-22T18:23:55.509Z,18.39
2023-05-22T18:26:44.009Z,18.31
2023-05-22T18:29:32.636Z,18.23
2023-05-22T18:32:24.474Z,18.15
2023-05-22T18:35:13.324Z,18.08
2023-05-22T18:38:01.940Z,18.01
2023-05-22T18:40:52.172Z,17.93
2023-05-22T18:43:40.773Z,17.81
2023-05-22T18:46:29.512Z,17.70
2023-05-22T18:49:18.163Z,17.62
2023-05-22T18:52:06.833Z,17.52
2023-05-22T18:54:55.421Z,17.45
2023-05-22T18:57:43.886Z,17.34
2023-05-22T19:00:32.450Z,17.23
2023-05-22T19:03:21.762Z,17.13
2023-05-22T19:06:10.506Z,17.01
2023-05-22T19:08:59.687Z,16.89
2023-05-22T19:11:48.376Z,16.77
2023-05-22T19:14:37.004Z,16.64
2023-05-22T19:17:26.755Z,16.52
2023-05-22T19:20:15.480Z,16.43
2023-05-22T19:23:04.238Z,16.37
2023-05-22T19:25:52.839Z,16.29
2023-05-22T19:29:09.484Z,16.17
2023-05-22T19:31:58.168Z,16.05
2023-05-22T19:34:47.624Z,15.92
2023-05-22T19:37:36.294Z,15.80
2023-05-22T19:52:33.046Z,16.12
2023-05-22T19:55:22.084Z,16.00
2023-05-22T19:58:11.177Z,15.81
2023-05-22T20:01:00.275Z,15.63
2023-05-22T20:03:49.271Z,15.48
2023-05-22T20:07:07.836Z,15.29
2023-05-22T20:09:56.608Z,15.16
2023-05-22T20:12:45.997Z,15.03
2023-05-22T20:15:34.623Z,14.92
2023-05-22T20:18:23.812Z,14.84
2023-05-22T20:21:12.344Z,14.77
2023-05-22T20:24:06.037Z,14.69
2023-05-22T20:26:54.730Z,14.59
2023-05-22T20:29:43.345Z,14.50
2023-05-22T20:32:32.461Z,14.42
2023-05-22T20:35:22.194Z,14.34
2023-05-22T20:38:14.356Z,14.24
2023-05-22T20:41:08.112Z,14.17
2023-05-22T20:43:58.901Z,14.12
2023-05-22T20:46:47.882Z,14.08
2023-05-22T20:49:36.556Z,14.03
2023-05-22T20:52:25.764Z,13.98
2023-05-22T20:55:14.423Z,13.96
2023-05-22T20:58:03.035Z,13.90
2023-05-22T21:00:51.631Z,13.85
2023-05-22T21:03:40.382Z,13.78
2023-05-22T21:06:29.311Z,13.72
2023-05-22T21:09:17.990Z,13.68
2023-05-22T21:12:06.812Z,13.63
2023-05-22T21:14:55.441Z,13.57
2023-05-22T21:17:44.376Z,13.51
2023-05-22T21:20:32.967Z,13.46
2023-05-22T21:23:23.895Z,13.38
2023-05-22T21:26:13.122Z,13.29
2023-05-22T21:29:03.530Z,13.21
2023-05-22T21:31:52.218Z,13.20
2023-05-22T21:34:40.915Z,13.19
2023-05-22T21:37:29.529Z,13.21
2023-05-22T21:40:18.224Z,13.20
2023-05-22T21:43:06.825Z,13.19
2023-05-22T21:45:55.394Z,13.15
2023-05-22T21:48:44.138Z,13.12
2023-05-22T21:51:32.730Z,13.09
2023-05-22T21:54:21.377Z,13.05
2023-05-22T21:57:09.971Z,13.01
2023-05-22T21:59:58.705Z,12.94
2023-05-22T22:02:47.423Z,12.87
2023-05-22T22:05:36.714Z,12.79
2023-05-22T22:08:28.293Z,12.70
2023-05-22T22:11:16.990Z,12.65
2023-05-22T22:14:07.225Z,12.64
2023-05-22T22:16:56.809Z,12.62
2023-05-22T22:19:45.409Z,12.60
2023-05-22T22:22:34.124Z,12.57
2023-05-22T22:25:22.756Z,12.55
2023-05-22T22:28:11.676Z,12.50
2023-05-22T22:31:01.456Z,12.44
2023-05-22T22:33:50.166Z,12.39
2023-05-22T22:36:38.991Z,12.32
2023-05-22T22:39:27.652Z,12.24
2023-05-22T22:42:16.405Z,12.17
2023-05-22T22:45:05.458Z,12.11
2023-05-22T22:47:56.502Z,12.08
2023-05-22T22:50:46.882Z,12.06
2023-05-22T22:53:36.987Z,12.03
2023-05-22T22:56:29.469Z,11.99
2023-05-22T22:59:18.308Z,11.94
2023-05-22T23:02:07.104Z,11.91
2023-05-22T23:04:55.979Z,11.86
2023-05-22T23:07:44.751Z,11.80
2023-05-22T23:10:33.534Z,11.77
2023-05-22T23:13:23.117Z,11.72
2023-05-22T23:16:11.853Z,11.68
2023-05-22T23:19:00.498Z,11.64
2023-05-22T23:21:49.254Z,11.60
2023-05-22T23:24:38.123Z,11.59
2023-05-22T23:27:26.875Z,11.58
2023-05-22T23:30:15.661Z,11.58
2023-05-22T23:33:06.180Z,11.56
2023-05-22T23:35:54.763Z,11.55
2023-05-22T23:38:43.351Z,11.52
2023-05-22T23:41:31.932Z,11.47
2023-05-22T23:44:21.237Z,11.41
2023-05-22T23:47:09.909Z,11.32
2023-05-22T23:49:59.699Z,11.24
2023-05-22T23:52:48.384Z,11.20
2023-05-22T23:55:36.994Z,11.16
2023-05-22T23:58:26.103Z,11.13
